Time;durP1;ratioP1;P1;durP2;ratioP2;P2;SDS_P1;SDS_P2;PMS_P1;PMS_P2;Temp;Humidity;BMP_temperature;BMP_pressure;BME280_temperature;BME280_humidity;BME280_pressure;Samples;Min_cycle;Max_cycle;Signal;HPM_P1;HPM_P2
2023/04/21 00:02:02;;;;;;;29.13;18.90;;;6.50;89.10;;;;;;5034307;28;20177;-86
2023/04/21 00:04:28;;;;;;;23.70;16.50;;;6.50;89.10;;;;;;5015798;28;20196;-89
2023/04/21 00:06:54;;;;;;;28.23;17.50;;;6.50;89.10;;;;;;5032794;28;20218;-87
2023/04/21 00:09:22;;;;;;;28.90;17.60;;;6.60;89.00;;;;;;5033537;28;20169;-89
2023/04/21 00:11:48;;;;;;;28.00;24.77;;;6.60;89.00;;;;;;5016028;28;20227;-89
2023/04/21 00:14:14;;;;;;;27.83;23.23;;;6.50;89.00;;;;;;5033627;28;20535;-88
2023/04/21 00:16:39;;;;;;;29.30;23.93;;;6.50;89.10;;;;;;5033455;28;20216;-88
2023/04/21 00:19:06;;;;;;;31.90;24.20;;;6.50;89.20;;;;;;5016034;28;20741;-88
2023/04/21 00:21:33;;;;;;;31.67;25.10;;;6.50;89.20;;;;;;5015940;28;20230;-87
2023/04/21 00:23:59;;;;;;;28.97;25.83;;;6.50;89.30;;;;;;5016454;28;20175;-88
2023/04/21 00:26:24;;;;;;;24.37;17.13;;;6.40;89.20;;;;;;5015532;28;20209;-87
2023/04/21 00:28:51;;;;;;;21.33;16.73;;;6.40;89.30;;;;;;5016240;28;20200;-87
2023/04/21 00:31:16;;;;;;;25.77;20.77;;;6.50;89.30;;;;;;5016385;28;20263;-88
2023/04/21 00:33:42;;;;;;;29.77;25.57;;;6.50;89.30;;;;;;5015540;28;20263;-88
2023/04/21 00:36:08;;;;;;;29.77;24.17;;;6.50;89.40;;;;;;5015994;28;20212;-88
2023/04/21 00:38:33;;;;;;;36.47;25.03;;;6.50;89.30;;;;;;5015794;28;20207;-88
2023/04/21 00:40:59;;;;;;;29.10;21.07;;;6.60;89.10;;;;;;5015531;28;20176;-87
2023/04/21 00:43:24;;;;;;;24.90;16.70;;;6.60;89.00;;;;;;5015532;28;20183;-88
2023/04/21 00:45:50;;;;;;;24.13;16.53;;;6.60;89.00;;;;;;5016085;28;20214;-88
2023/04/21 00:48:16;;;;;;;27.43;16.57;;;6.60;89.00;;;;;;5015774;28;20225;-88
2023/04/21 00:50:43;;;;;;;24.37;16.67;;;6.60;89.00;;;;;;5015817;28;20233;-88
2023/04/21 00:53:11;;;;;;;21.70;15.93;;;6.70;88.90;;;;;;5015790;28;20176;-88
2023/04/21 00:55:37;;;;;;;31.83;17.97;;;6.60;88.90;;;;;;5015462;28;20207;-88
2023/04/21 00:58:03;;;;;;;26.70;17.90;;;6.70;88.80;;;;;;5016144;28;20262;-87
2023/04/21 01:00:28;;;;;;;27.10;17.70;;;6.60;88.80;;;;;;5033286;28;20175;-88
2023/04/21 01:02:54;;;;;;;18.97;14.90;;;6.60;88.90;;;;;;5015621;28;20177;-88
2023/04/21 01:05:20;;;;;;;17.37;15.33;;;6.70;89.00;;;;;;5032846;28;20196;-88
2023/04/21 01:07:46;;;;;;;20.40;15.10;;;6.70;88.90;;;;;;5015601;28;20678;-88
2023/04/21 01:10:11;;;;;;;22.17;15.67;;;6.80;88.70;;;;;;5033044;28;20173;-88
2023/04/21 01:12:44;;;;;;;16.43;12.57;;;6.70;88.70;;;;;;5016062;28;20656;-88
2023/04/21 01:15:12;;;;;;;25.43;14.77;;;6.80;88.70;;;;;;5015295;28;20230;-88
2023/04/21 01:17:37;;;;;;;25.47;16.97;;;6.80;88.50;;;;;;5015746;28;20701;-87
2023/04/21 01:20:12;;;;;;;24.87;15.83;;;6.70;88.50;;;;;;5037159;28;20219;-88
2023/04/21 01:22:39;;;;;;;22.20;14.57;;;6.70;88.70;;;;;;5019194;28;20172;-88
2023/04/21 01:25:05;;;;;;;21.90;15.87;;;6.70;88.70;;;;;;5019921;28;20204;-88
2023/04/21 01:27:30;;;;;;;19.30;14.87;;;6.70;88.70;;;;;;5019060;28;20199;-88
2023/04/21 01:29:56;;;;;;;19.00;14.37;;;6.60;88.90;;;;;;5036548;28;20164;-88
2023/04/21 01:32:25;;;;;;;22.77;14.07;;;6.60;88.90;;;;;;5018748;28;20180;-88
2023/04/21 01:34:51;;;;;;;21.73;15.63;;;6.70;88.80;;;;;;5018713;28;20204;-88
2023/04/21 01:37:19;;;;;;;25.70;16.57;;;6.60;88.90;;;;;;5018699;28;20211;-88
2023/04/21 01:39:50;;;;;;;24.03;17.13;;;6.60;88.90;;;;;;5018803;28;20188;-88
2023/04/21 01:42:17;;;;;;;25.80;15.80;;;6.60;89.00;;;;;;5036340;28;20623;-87
2023/04/21 01:44:43;;;;;;;24.40;17.00;;;6.60;89.00;;;;;;5018534;28;20298;-88
2023/04/21 01:47:10;;;;;;;25.97;23.27;;;6.50;89.00;;;;;;5018834;28;20235;-88
2023/04/21 01:49:35;;;;;;;27.80;24.47;;;6.50;89.10;;;;;;5019351;28;20246;-88
2023/04/21 01:52:01;;;;;;;26.70;23.97;;;6.50;89.10;;;;;;5018661;28;20235;-88
2023/04/21 01:54:26;;;;;;;25.97;23.43;;;6.60;89.10;;;;;;5018443;28;20177;-88
2023/04/21 01:56:52;;;;;;;27.47;22.50;;;6.50;89.00;;;;;;5018376;28;20204;-88
2023/04/21 01:59:18;;;;;;;22.47;15.63;;;6.50;89.10;;;;;;5018315;28;20181;-88
2023/04/21 02:01:43;;;;;;;19.10;15.00;;;6.60;89.00;;;;;;5018297;28;20211;-88
2023/04/21 02:04:09;;;;;;;20.33;16.13;;;6.60;89.00;;;;;;5018494;28;20183;-88
2023/04/21 02:06:34;;;;;;;27.37;22.70;;;6.60;88.90;;;;;;5035728;28;20216;-88
2023/04/21 02:09:00;;;;;;;26.63;22.50;;;6.70;88.80;;;;;;5035843;28;20172;-88
2023/04/21 02:11:25;;;;;;;24.67;22.13;;;6.60;88.80;;;;;;5036057;28;20172;-88
2023/04/21 02:13:52;;;;;;;25.30;20.77;;;6.60;88.90;;;;;;5018910;28;20212;-88
2023/04/21 02:16:19;;;;;;;23.97;20.10;;;6.60;88.90;;;;;;5017849;28;20211;-88
2023/04/21 02:18:47;;;;;;;22.20;20.20;;;6.50;88.90;;;;;;5017935;28;20667;-88
2023/04/21 02:21:14;;;;;;;22.23;15.47;;;6.60;89.00;;;;;;5018652;28;20200;-88
2023/04/21 02:23:40;;;;;;;23.73;15.30;;;6.60;89.00;;;;;;5017922;28;20201;-88
2023/04/21 02:26:05;;;;;;;18.60;15.13;;;6.60;89.00;;;;;;5018103;28;20238;-88
2023/04/21 02:28:31;;;;;;;24.07;15.73;;;6.60;89.00;;;;;;5017823;28;20226;-88
2023/04/21 02:30:56;;;;;;;21.83;15.27;;;6.60;88.90;;;;;;5017299;28;20272;-88
2023/04/21 02:33:22;;;;;;;19.90;13.60;;;6.60;88.80;;;;;;5035352;28;20180;-88
2023/04/21 02:35:47;;;;;;;16.53;14.70;;;6.60;88.80;;;;;;5017454;28;20249;-87
2023/04/21 02:38:13;;;;;;;22.90;12.97;;;6.50;88.80;;;;;;5017725;28;20172;-88
2023/04/21 02:40:39;;;;;;;18.30;14.50;;;6.60;88.80;;;;;;5017661;28;20607;-88
2023/04/21 02:43:05;;;;;;;17.00;12.77;;;6.60;88.80;;;;;;5017879;28;20185;-88
2023/04/21 02:45:30;;;;;;;19.23;13.40;;;6.60;88.80;;;;;;5035298;28;20200;-88
2023/04/21 02:47:57;;;;;;;19.73;13.57;;;6.70;88.50;;;;;;5017539;28;20176;-88
2023/04/21 02:50:23;;;;;;;22.60;14.83;;;6.70;88.50;;;;;;5017337;28;20242;-88
2023/04/21 02:52:48;;;;;;;20.87;15.23;;;6.60;88.50;;;;;;5017269;28;20204;-88
2023/04/21 02:55:14;;;;;;;15.77;13.33;;;6.60;88.50;;;;;;5017665;28;20181;-88
2023/04/21 02:57:39;;;;;;;19.40;14.37;;;6.60;88.50;;;;;;5017147;28;20599;-88
2023/04/21 03:00:06;;;;;;;21.03;14.97;;;6.60;88.50;;;;;;5017207;28;20196;-88
2023/04/21 03:02:32;;;;;;;20.03;13.23;;;6.60;88.50;;;;;;5017101;28;20191;-88
2023/04/21 03:04:57;;;;;;;16.27;14.37;;;6.60;88.50;;;;;;5017081;28;20208;-88
2023/04/21 03:07:23;;;;;;;26.53;14.47;;;6.60;88.50;;;;;;5017057;28;20196;-88
2023/04/21 03:09:48;;;;;;;23.93;15.37;;;6.60;88.50;;;;;;5017028;28;20172;-88
2023/04/21 03:12:14;;;;;;;16.40;14.17;;;6.60;88.50;;;;;;5017228;28;20216;-88
2023/04/21 03:14:39;;;;;;;17.30;13.60;;;6.60;88.60;;;;;;5016996;28;20192;-88
2023/04/21 03:17:05;;;;;;;22.93;20.63;;;6.60;88.50;;;;;;5017171;28;20199;-88
2023/04/21 03:19:31;;;;;;;24.10;21.13;;;6.50;88.60;;;;;;5034832;28;20180;-87
2023/04/21 03:21:57;;;;;;;22.80;20.67;;;6.60;88.60;;;;;;5016751;28;20564;-88
2023/04/21 03:24:22;;;;;;;24.90;21.40;;;6.60;88.60;;;;;;5016894;28;20176;-88
2023/04/21 03:26:48;;;;;;;27.27;22.63;;;6.60;88.50;;;;;;5016639;28;20741;-87
2023/04/21 03:29:14;;;;;;;25.37;21.57;;;6.60;88.50;;;;;;5016658;28;20259;-87
2023/04/21 03:31:39;;;;;;;24.00;21.47;;;6.60;88.40;;;;;;5016614;28;20175;-88
2023/04/21 03:34:05;;;;;;;19.67;14.10;;;6.60;88.40;;;;;;5034507;28;20247;-88
2023/04/21 03:36:30;;;;;;;21.83;14.40;;;6.60;88.20;;;;;;5016532;28;20564;-88
2023/04/21 03:38:57;;;;;;;25.83;23.03;;;6.60;88.20;;;;;;5016433;28;20177;-88
2023/04/21 03:41:23;;;;;;;24.80;22.53;;;6.50;88.20;;;;;;5015482;28;20263;-88
2023/04/21 03:43:51;;;;;;;25.23;21.83;;;6.60;88.30;;;;;;5016680;28;20204;-87
2023/04/21 03:46:18;;;;;;;21.67;19.57;;;6.50;88.30;;;;;;5016306;28;20216;-88
2023/04/21 03:48:44;;;;;;;22.03;14.77;;;6.60;88.40;;;;;;5016355;28;20227;-88
2023/04/21 03:51:10;;;;;;;23.07;15.13;;;6.60;88.20;;;;;;5016240;28;20549;-88
2023/04/21 03:53:35;;;;;;;21.97;15.03;;;6.50;88.20;;;;;;5016338;28;20181;-88
2023/04/21 03:56:01;;;;;;;15.73;13.37;;;6.50;88.30;;;;;;5016024;28;20204;-88
2023/04/21 03:58:27;;;;;;;16.27;14.23;;;6.50;88.30;;;;;;5033978;28;20172;-87
2023/04/21 04:00:52;;;;;;;16.73;14.30;;;6.60;88.20;;;;;;5016522;28;20191;-88
2023/04/21 04:03:18;;;;;;;18.23;13.83;;;6.60;88.00;;;;;;5016093;28;20278;-88
2023/04/21 04:05:43;;;;;;;18.47;13.33;;;6.60;87.90;;;;;;5016202;28;20208;-87
2023/04/21 04:08:09;;;;;;;23.53;15.10;;;6.60;88.00;;;;;;5034227;28;20177;-88
2023/04/21 04:10:34;;;;;;;18.57;15.20;;;6.60;87.90;;;;;;5016015;28;20191;-88
2023/04/21 04:13:00;;;;;;;17.53;14.03;;;6.60;87.80;;;;;;5016679;28;20169;-88
2023/04/21 04:15:26;;;;;;;23.77;15.17;;;6.60;87.80;;;;;;5016179;28;20189;-88
2023/04/21 04:17:52;;;;;;;20.33;14.73;;;6.60;87.80;;;;;;5033386;28;20274;-88
2023/04/21 04:20:17;;;;;;;16.07;14.27;;;6.60;87.70;;;;;;5015817;28;20624;-88
2023/04/21 04:22:43;;;;;;;24.77;16.50;;;6.60;87.70;;;;;;5015657;28;20607;-88
2023/04/21 04:25:08;;;;;;;16.33;13.23;;;6.60;87.60;;;;;;5016399;28;20254;-88
2023/04/21 04:27:34;;;;;;;17.33;13.90;;;6.60;87.70;;;;;;5015663;28;20243;-88
2023/04/21 04:29:59;;;;;;;19.47;13.77;;;6.70;87.50;;;;;;5015712;28;20226;-89
2023/04/21 04:32:28;;;;;;;17.60;13.93;;;6.70;87.50;;;;;;5015950;28;20175;-88
2023/04/21 04:34:57;;;;;;;18.43;13.07;;;6.80;87.50;;;;;;5015626;28;20181;-87
2023/04/21 04:37:24;;;;;;;19.07;14.87;;;6.80;87.40;;;;;;5033109;28;20200;-88
2023/04/21 04:39:52;;;;;;;23.07;15.00;;;6.80;87.30;;;;;;5015588;28;20180;-88
2023/04/21 04:42:19;;;;;;;21.90;15.27;;;6.80;87.20;;;;;;5016134;28;20271;-88
2023/04/21 04:44:45;;;;;;;15.37;13.43;;;6.80;87.20;;;;;;5015578;28;20208;-88
2023/04/21 04:47:11;;;;;;;19.83;14.60;;;6.80;87.20;;;;;;5033052;28;20185;-86
2023/04/21 04:49:37;;;;;;;18.40;14.43;;;6.90;87.10;;;;;;5015445;28;20255;-86
2023/04/21 04:52:03;;;;;;;22.90;20.70;;;7.00;87.00;;;;;;5015558;28;20227;-86
2023/04/21 04:54:28;;;;;;;24.60;20.43;;;7.00;86.90;;;;;;5019270;28;20179;-86
2023/04/21 04:56:54;;;;;;;27.50;21.57;;;7.00;86.80;;;;;;5037205;28;20188;-85
2023/04/21 04:59:20;;;;;;;27.73;21.83;;;7.10;86.70;;;;;;5019428;28;20172;-87
2023/04/21 05:01:45;;;;;;;25.07;20.50;;;7.20;86.60;;;;;;5019400;28;20231;-87
2023/04/21 05:04:15;;;;;;;15.57;13.27;;;7.20;86.40;;;;;;5037337;28;20175;-87
2023/04/21 05:06:40;;;;;;;19.03;14.30;;;7.30;86.20;;;;;;5037036;28;20203;-88
2023/04/21 05:09:06;;;;;;;24.63;22.00;;;7.30;86.10;;;;;;5019551;28;20646;-87
2023/04/21 05:11:31;;;;;;;23.80;21.63;;;7.30;86.00;;;;;;5019474;28;20173;-87
2023/04/21 05:13:57;;;;;;;27.00;22.70;;;7.30;85.90;;;;;;5019316;28;20176;-89
2023/04/21 05:16:22;;;;;;;24.83;22.23;;;7.50;85.80;;;;;;5019237;28;20283;-88
2023/04/21 05:18:52;;;;;;;22.97;20.60;;;7.40;85.70;;;;;;5019098;28;20571;-88
2023/04/21 05:21:28;;;;;;;27.80;21.27;;;7.50;85.70;;;;;;5019089;28;20263;-87
2023/04/21 05:23:57;;;;;;;17.43;10.70;;;7.60;85.30;;;;;;5036727;28;20160;-88
2023/04/21 05:26:24;;;;;;;16.97;11.77;;;7.60;84.90;;;;;;5019093;28;20208;-87
2023/04/21 05:28:50;;;;;;;22.57;20.00;;;7.70;84.70;;;;;;5019108;28;20263;-88
2023/04/21 05:31:15;;;;;;;22.20;19.03;;;7.70;84.80;;;;;;5036619;28;20196;-88
2023/04/21 05:33:41;;;;;;;23.30;20.70;;;7.80;84.70;;;;;;5036858;28;20180;-88
2023/04/21 05:36:08;;;;;;;20.27;17.97;;;7.90;84.60;;;;;;5018593;28;20212;-88
2023/04/21 05:38:34;;;;;;;20.40;12.50;;;7.90;84.30;;;;;;5018786;28;20522;-87
2023/04/21 05:41:00;;;;;;;22.63;13.13;;;8.00;84.20;;;;;;5018816;28;20176;-88
2023/04/21 05:43:26;;;;;;;16.80;12.57;;;8.10;83.90;;;;;;5019367;28;20180;-88
2023/04/21 05:45:51;;;;;;;16.00;12.97;;;8.10;83.80;;;;;;5036184;28;20210;-87
2023/04/21 05:48:17;;;;;;;20.20;13.80;;;8.20;83.60;;;;;;5018533;28;20276;-88
2023/04/21 05:50:42;;;;;;;16.77;13.07;;;8.30;83.60;;;;;;5018533;28;20203;-88
2023/04/21 05:53:08;;;;;;;14.43;13.03;;;8.30;83.20;;;;;;5018491;28;20184;-87
2023/04/21 05:55:35;;;;;;;22.23;15.13;;;8.40;83.10;;;;;;5018853;28;20659;-87
2023/04/21 05:58:00;;;;;;;17.73;14.30;;;8.50;82.90;;;;;;5036043;28;20227;-88
2023/04/21 06:00:26;;;;;;;21.83;15.23;;;8.50;82.50;;;;;;5018364;28;20283;-88
2023/04/21 06:02:51;;;;;;;22.93;14.23;;;8.60;82.70;;;;;;5018282;28;20184;-87
2023/04/21 06:05:20;;;;;;;19.40;14.30;;;8.70;82.60;;;;;;5034733;28;20200;-88
2023/04/21 06:07:46;;;;;;;16.03;13.90;;;8.80;82.20;;;;;;5018280;28;20254;-89
2023/04/21 06:10:13;;;;;;;17.53;13.93;;;8.90;82.30;;;;;;5019198;28;20510;-87
2023/04/21 06:12:38;;;;;;;21.10;14.20;;;8.90;82.00;;;;;;5036008;28;20204;-87
2023/04/21 06:15:04;;;;;;;16.50;14.80;;;9.00;82.00;;;;;;5035939;28;20259;-87
2023/04/21 06:17:30;;;;;;;17.80;13.53;;;9.10;81.60;;;;;;5020409;28;20199;-89
2023/04/21 06:19:56;;;;;;;17.60;12.57;;;9.10;81.50;;;;;;5018354;28;20180;-88
2023/04/21 06:22:22;;;;;;;19.67;12.23;;;9.20;81.50;;;;;;5017967;28;20208;-90
2023/04/21 06:24:48;;;;;;;16.00;12.63;;;9.30;80.40;;;;;;5035852;28;20697;-89
2023/04/21 06:27:14;;;;;;;19.07;13.83;;;9.30;80.50;;;;;;5018122;28;20192;-90
2023/04/21 06:29:41;;;;;;;14.80;12.60;;;9.40;80.40;;;;;;5017964;28;20527;-90
2023/04/21 06:32:07;;;;;;;15.83;14.13;;;9.50;79.50;;;;;;5017826;28;20222;-88
2023/04/21 06:34:32;;;;;;;18.63;14.90;;;9.60;79.70;;;;;;5017753;28;20268;-89
2023/04/21 06:36:58;;;;;;;16.17;14.57;;;9.70;79.90;;;;;;5035167;28;20204;-88
2023/04/21 06:39:23;;;;;;;16.33;14.63;;;9.80;79.90;;;;;;5017608;28;20173;-89
2023/04/21 06:41:49;;;;;;;26.57;24.17;;;9.80;79.40;;;;;;5035279;28;20176;-88
2023/04/21 06:44:15;;;;;;;26.00;23.83;;;9.90;79.00;;;;;;5018328;28;20200;-87
2023/04/21 06:46:40;;;;;;;26.67;23.93;;;10.10;78.90;;;;;;5017385;28;20287;-89
2023/04/21 06:49:09;;;;;;;26.33;23.73;;;10.10;79.00;;;;;;5035124;28;20169;-88
2023/04/21 06:51:36;;;;;;;27.97;24.87;;;10.20;77.50;;;;;;5035034;28;20173;-88
2023/04/21 06:54:02;;;;;;;17.37;15.57;;;10.20;77.20;;;;;;5035373;28;20688;-88
2023/04/21 06:56:28;;;;;;;18.83;16.60;;;10.30;77.70;;;;;;5034999;28;20267;-88
2023/04/21 06:58:54;;;;;;;25.47;22.97;;;10.30;77.60;;;;;;5017184;28;20183;-88
2023/04/21 07:01:20;;;;;;;25.73;23.30;;;10.40;77.40;;;;;;5017206;28;20176;-89
2023/04/21 07:03:46;;;;;;;28.23;25.03;;;10.50;77.00;;;;;;5017067;28;20227;-88
2023/04/21 07:06:11;;;;;;;29.27;26.13;;;10.50;76.30;;;;;;5016916;28;20732;-89
2023/04/21 07:08:37;;;;;;;20.50;16.37;;;10.60;76.00;;;;;;5018151;28;20173;-88
2023/04/21 07:11:03;;;;;;;18.07;16.27;;;10.70;76.70;;;;;;5017263;28;20172;-88
2023/04/21 07:13:29;;;;;;;19.03;17.00;;;10.80;76.50;;;;;;5034915;28;20256;-88
2023/04/21 07:15:55;;;;;;;23.20;16.50;;;10.90;76.10;;;;;;5034339;28;20192;-88
2023/04/21 07:18:20;;;;;;;16.70;15.20;;;11.00;76.10;;;;;;5034901;28;20173;-88
2023/04/21 07:20:46;;;;;;;19.17;15.90;;;11.00;75.10;;;;;;5016875;28;20169;-89
2023/04/21 07:23:11;;;;;;;19.03;17.17;;;11.00;74.90;;;;;;5017586;28;20203;-87
2023/04/21 07:25:37;;;;;;;18.70;16.97;;;11.20;74.60;;;;;;5034228;28;20192;-88
2023/04/21 07:28:03;;;;;;;21.10;17.10;;;11.20;74.20;;;;;;5034324;28;20172;-88
2023/04/21 07:30:29;;;;;;;19.23;17.33;;;11.40;74.60;;;;;;5016553;28;20203;-89
2023/04/21 07:32:55;;;;;;;19.33;17.40;;;11.50;74.60;;;;;;5016592;28;20259;-88
2023/04/21 07:35:21;;;;;;;19.33;17.50;;;11.60;73.40;;;;;;5016515;28;20208;-88
2023/04/21 07:37:46;;;;;;;17.70;16.00;;;11.60;72.70;;;;;;5016266;28;20335;-88
2023/04/21 07:40:12;;;;;;;18.90;17.23;;;11.70;73.10;;;;;;5016481;28;20268;-88
2023/04/21 07:42:38;;;;;;;18.50;16.07;;;11.80;72.80;;;;;;5016678;28;20744;-88
2023/04/21 07:45:04;;;;;;;19.33;17.40;;;12.00;73.80;;;;;;5016409;28;20216;-88
2023/04/21 07:47:30;;;;;;;19.67;17.60;;;12.10;72.60;;;;;;5034203;28;20192;-88
2023/04/21 07:49:55;;;;;;;19.03;17.07;;;12.20;73.00;;;;;;5016402;28;20172;-88
2023/04/21 07:52:21;;;;;;;17.43;15.97;;;12.30;72.40;;;;;;5016356;28;20310;-88
2023/04/21 07:54:47;;;;;;;19.83;17.73;;;12.40;72.40;;;;;;5016343;28;20643;-88
2023/04/21 07:57:12;;;;;;;20.33;18.23;;;12.40;71.70;;;;;;5016217;28;20196;-87
2023/04/21 07:59:38;;;;;;;19.03;17.43;;;12.50;71.70;;;;;;5016610;28;20267;-88
2023/04/21 08:02:04;;;;;;;19.83;17.90;;;12.50;70.10;;;;;;5033949;28;20179;-87
2023/04/21 08:04:30;;;;;;;21.47;18.10;;;12.60;72.00;;;;;;5016023;28;20181;-87
2023/04/21 08:06:55;;;;;;;18.80;16.87;;;12.70;70.70;;;;;;5016098;28;20564;-87
2023/04/21 08:09:21;;;;;;;21.17;18.90;;;12.80;71.40;;;;;;5016014;28;20169;-87
2023/04/21 08:11:47;;;;;;;21.30;19.27;;;12.80;69.60;;;;;;5015896;28;20263;-87
2023/04/21 08:14:13;;;;;;;30.47;27.77;;;12.90;69.60;;;;;;5016090;28;20179;-87
2023/04/21 08:16:40;;;;;;;28.63;26.30;;;13.00;69.90;;;;;;5033497;28;20247;-87
2023/04/21 08:19:07;;;;;;;28.63;26.33;;;13.20;70.40;;;;;;5015936;28;20180;-85
2023/04/21 08:21:32;;;;;;;30.80;28.20;;;13.30;69.50;;;;;;5016100;28;20546;-87
2023/04/21 08:23:58;;;;;;;19.93;17.87;;;13.40;69.90;;;;;;5015839;28;20180;-88
2023/04/21 08:26:24;;;;;;;19.63;17.80;;;13.50;69.00;;;;;;5015912;28;20212;-87
2023/04/21 08:28:51;;;;;;;21.30;19.33;;;13.60;67.70;;;;;;5033055;28;20176;-87
2023/04/21 08:31:17;;;;;;;30.10;27.70;;;13.60;68.20;;;;;;5033609;28;20161;-87
2023/04/21 08:33:43;;;;;;;30.27;27.60;;;13.70;66.70;;;;;;5015510;28;20223;-87
2023/04/21 08:36:09;;;;;;;28.97;26.77;;;13.80;67.40;;;;;;5033139;28;20216;-88
2023/04/21 08:38:35;;;;;;;28.73;26.20;;;13.80;66.60;;;;;;5015419;28;20180;-87
2023/04/21 08:41:02;;;;;;;20.33;18.50;;;13.90;67.10;;;;;;5015472;28;20188;-88
2023/04/21 08:43:28;;;;;;;21.67;19.37;;;14.10;67.90;;;;;;5015371;28;20677;-87
2023/04/21 08:45:54;;;;;;;20.70;19.00;;;14.20;67.60;;;;;;5033253;28;20208;-88
2023/04/21 08:48:22;;;;;;;21.00;19.20;;;14.20;64.30;;;;;;5033111;28;20735;-87
2023/04/21 08:50:49;;;;;;;23.23;21.00;;;14.20;63.40;;;;;;5015569;28;20169;-87
2023/04/21 08:53:15;;;;;;;21.60;19.40;;;14.30;64.70;;;;;;5015523;28;20635;-87
2023/04/21 08:55:41;;;;;;;22.17;19.87;;;14.30;63.50;;;;;;5015382;28;20551;-87
2023/04/21 08:58:08;;;;;;;22.03;20.13;;;14.50;65.00;;;;;;5015349;28;20176;-87
2023/04/21 09:00:35;;;;;;;22.40;20.17;;;14.60;65.20;;;;;;5016260;28;20208;-87
2023/04/21 09:03:01;;;;;;;21.00;19.27;;;14.60;64.20;;;;;;5015295;28;20177;-87
2023/04/21 09:05:32;;;;;;;20.30;18.50;;;14.70;63.30;;;;;;5015325;28;20208;-85
2023/04/21 09:08:11;;;;;;;22.63;20.37;;;14.80;62.20;;;;;;5015363;28;20173;-87
2023/04/21 09:10:48;;;;;;;21.95;18.88;;;14.90;65.90;;;;;;5015327;28;20168;-88
2023/04/21 09:13:14;;;;;;;21.90;19.67;;;15.10;62.80;;;;;;5015432;28;20251;-87
2023/04/21 09:15:41;;;;;;;21.35;19.17;;;15.10;64.50;;;;;;5032872;28;20171;-87
2023/04/21 09:18:14;;;;;;;20.27;18.25;;;15.30;63.90;;;;;;5032866;28;20529;-87
2023/04/21 09:20:42;;;;;;;20.45;18.65;;;15.30;61.50;;;;;;5015258;28;20271;-87
2023/04/21 09:23:08;;;;;;;18.65;17.05;;;15.30;60.10;;;;;;5015135;28;20184;-87
2023/04/21 09:25:41;;;;;;;20.60;18.60;;;15.50;62.80;;;;;;5015273;28;20204;-86
2023/04/21 09:28:11;;;;;;;19.95;18.08;;;15.60;60.90;;;;;;5015080;28;20196;-86
2023/04/21 09:30:40;;;;;;;22.02;18.52;;;15.70;59.90;;;;;;5032737;28;20259;-87
2023/04/21 09:33:06;;;;;;;21.02;18.40;;;15.80;62.90;;;;;;5032739;28;20230;-87
2023/04/21 09:35:35;;;;;;;20.48;18.58;;;15.80;63.80;;;;;;5014922;28;20654;-87
2023/04/21 09:38:02;;;;;;;21.08;19.20;;;15.80;60.30;;;;;;5014981;28;20185;-87
2023/04/21 09:40:31;;;;;;;23.13;20.83;;;16.10;61.30;;;;;;5036109;28;20184;-87
2023/04/21 09:42:56;;;;;;;21.80;19.27;;;16.20;60.20;;;;;;5018716;28;20713;-87
2023/04/21 09:45:25;;;;;;;21.67;19.88;;;16.30;61.70;;;;;;5036679;28;20208;-86
2023/04/21 09:47:55;;;;;;;22.60;20.50;;;16.20;58.40;;;;;;5036373;28;20646;-86
2023/04/21 09:50:22;;;;;;;23.55;21.35;;;16.30;60.00;;;;;;5036579;28;20165;-86
2023/04/21 09:52:50;;;;;;;23.75;21.27;;;16.40;59.80;;;;;;5036320;28;20176;-86
2023/04/21 09:55:18;;;;;;;24.33;21.95;;;16.50;61.20;;;;;;5018716;28;20180;-86
2023/04/21 09:57:46;;;;;;;20.73;18.77;;;16.50;60.60;;;;;;5018461;28;20192;-87
2023/04/21 10:00:12;;;;;;;21.77;19.75;;;16.50;60.50;;;;;;5018486;28;20183;-87
2023/04/21 10:02:43;;;;;;;23.63;21.63;;;16.60;61.40;;;;;;5018434;28;20215;-86
2023/04/21 10:05:10;;;;;;;23.33;21.38;;;16.70;61.50;;;;;;5035936;28;20279;-87
2023/04/21 10:07:35;;;;;;;23.88;21.65;;;16.80;59.20;;;;;;5018253;28;20679;-87
2023/04/21 10:10:01;;;;;;;23.35;21.45;;;16.90;57.70;;;;;;5018331;28;20173;-87
2023/04/21 10:12:27;;;;;;;22.85;20.85;;;16.90;57.80;;;;;;5018060;28;20179;-88
2023/04/21 10:14:56;;;;;;;22.13;20.15;;;17.00;59.50;;;;;;5018062;28;20184;-87
2023/04/21 10:17:26;;;;;;;21.60;19.50;;;17.00;56.60;;;;;;5035844;28;20196;-87
2023/04/21 10:19:56;;;;;;;21.60;19.70;;;17.10;57.50;;;;;;5036358;28;20180;-87
2023/04/21 10:22:33;;;;;;;22.23;20.35;;;17.20;57.20;;;;;;5018690;28;20187;-87
2023/04/21 10:25:02;;;;;;;21.63;19.65;;;17.30;57.80;;;;;;5035614;28;20266;-87
2023/04/21 10:27:39;;;;;;;22.10;20.20;;;17.30;55.60;;;;;;5017956;28;20235;-86
2023/04/21 10:30:22;;;;;;;22.88;20.77;;;17.50;58.40;;;;;;5017884;28;20175;-87
2023/04/21 10:32:48;;;;;;;22.00;20.13;;;17.50;59.70;;;;;;5017963;28;20303;-86
2023/04/21 10:35:20;;;;;;;22.50;20.65;;;17.50;57.10;;;;;;5017875;28;20211;-86
2023/04/21 10:37:47;;;;;;;23.38;21.27;;;17.50;58.10;;;;;;5035257;28;20689;-87
2023/04/21 10:40:34;;;;;;;22.95;20.55;;;17.60;55.20;;;;;;5035291;28;20177;-87
2023/04/21 10:43:03;;;;;;;22.17;20.05;;;17.60;56.10;;;;;;5035292;28;20168;-86
2023/04/21 10:45:30;;;;;;;20.95;19.05;;;17.70;59.10;;;;;;5035144;28;20286;-87
2023/04/21 10:48:00;;;;;;;18.40;17.05;;;17.60;54.90;;;;;;5018126;28;20177;-87
2023/04/21 10:50:30;;;;;;;22.50;20.60;;;17.70;56.20;;;;;;5016854;28;20256;-87
2023/04/21 10:52:58;;;;;;;21.83;20.02;;;17.80;53.60;;;;;;5017378;28;20177;-87
2023/04/21 10:55:28;;;;;;;22.20;20.27;;;17.80;54.70;;;;;;5017592;28;20176;-87
2023/04/21 10:57:54;;;;;;;20.83;18.70;;;17.90;54.30;;;;;;5017616;28;20168;-87
2023/04/21 11:00:22;;;;;;;27.70;19.45;;;18.10;54.90;;;;;;5034952;28;20215;-86
2023/04/21 11:02:55;;;;;;;21.08;19.25;;;18.20;54.20;;;;;;5017277;28;20518;-85
2023/04/21 11:05:37;;;;;;;29.98;27.55;;;18.20;52.30;;;;;;5017098;28;20215;-86
2023/04/21 11:08:10;;;;;;;28.98;26.52;;;18.20;54.00;;;;;;5035076;28;20238;-87
2023/04/21 11:10:47;;;;;;;28.73;26.42;;;18.20;54.50;;;;;;5034773;28;20650;-87
2023/04/21 11:13:13;;;;;;;21.63;19.70;;;18.30;55.90;;;;;;5017043;28;20631;-86
2023/04/21 11:15:39;;;;;;;20.27;18.67;;;18.30;55.80;;;;;;5034986;28;20191;-86
2023/04/21 11:18:07;;;;;;;21.92;19.92;;;18.30;53.30;;;;;;5016940;28;20263;-86
2023/04/21 11:20:33;;;;;;;28.95;26.45;;;18.40;53.00;;;;;;5016817;28;20208;-86
2023/04/21 11:22:58;;;;;;;30.45;28.05;;;18.50;55.10;;;;;;5016621;28;20194;-85
2023/04/21 11:25:24;;;;;;;27.83;25.25;;;18.70;52.50;;;;;;5034345;28;20204;-85
2023/04/21 11:27:58;;;;;;;26.92;24.67;;;18.70;52.60;;;;;;5016530;28;20189;-86
2023/04/21 11:30:32;;;;;;;20.88;19.02;;;18.50;51.20;;;;;;5016607;28;20176;-85
2023/04/21 11:32:58;;;;;;;21.60;19.70;;;18.60;54.90;;;;;;5016705;28;20177;-87
2023/04/21 11:35:24;;;;;;;29.60;27.30;;;18.70;51.80;;;;;;5016665;28;20262;-87
2023/04/21 11:37:52;;;;;;;30.00;26.90;;;18.70;53.20;;;;;;5016353;28;20654;-87
2023/04/21 11:40:18;;;;;;;28.13;26.00;;;18.80;53.20;;;;;;5016397;28;20293;-86
2023/04/21 11:42:45;;;;;;;27.90;25.52;;;18.80;54.70;;;;;;5016412;28;20275;-85
2023/04/21 11:45:17;;;;;;;23.10;19.65;;;18.80;51.90;;;;;;5034004;28;20200;-87
2023/04/21 11:47:43;;;;;;;20.60;18.73;;;18.80;55.30;;;;;;5016301;28;20200;-86
2023/04/21 11:50:09;;;;;;;21.60;19.65;;;18.70;52.40;;;;;;5016230;28;20176;-88
2023/04/21 11:52:40;;;;;;;22.15;20.17;;;18.70;53.70;;;;;;5034235;28;20169;-86
2023/04/21 11:55:11;;;;;;;21.73;19.83;;;18.90;55.70;;;;;;5016420;28;20172;-88
2023/04/21 11:57:39;;;;;;;21.20;19.38;;;19.00;53.60;;;;;;5033928;28;20199;-87
2023/04/21 12:00:07;;;;;;;22.63;20.60;;;18.90;53.00;;;;;;5016560;28;20268;-87
2023/04/21 12:02:33;;;;;;;21.17;19.30;;;18.80;53.90;;;;;;5015220;28;20177;-87
2023/04/21 12:05:09;;;;;;;23.17;19.85;;;18.80;52.60;;;;;;5033662;28;20215;-88
2023/04/21 12:07:37;;;;;;;21.40;19.55;;;18.80;51.80;;;;;;5016029;28;20223;-87
2023/04/21 12:10:12;;;;;;;28.98;26.65;;;18.90;53.00;;;;;;5033529;28;20226;-87
2023/04/21 12:12:39;;;;;;;29.52;26.88;;;18.80;52.20;;;;;;5016043;28;20639;-87
2023/04/21 12:15:09;;;;;;;29.65;27.35;;;18.80;53.30;;;;;;5015970;28;20177;-87
2023/04/21 12:17:39;;;;;;;27.85;25.83;;;18.90;53.10;;;;;;5033848;28;20280;-86
2023/04/21 12:20:06;;;;;;;22.35;20.20;;;18.90;50.90;;;;;;5016093;28;20183;-85
2023/04/21 12:22:32;;;;;;;20.98;19.20;;;18.90;53.70;;;;;;5015816;28;20673;-86
2023/04/21 12:24:57;;;;;;;24.60;22.45;;;19.00;53.80;;;;;;5015714;28;20620;-85
2023/04/21 12:27:23;;;;;;;29.77;27.40;;;18.80;51.90;;;;;;5015656;28;20189;-85
2023/04/21 12:29:48;;;;;;;31.48;28.40;;;18.90;55.00;;;;;;5015602;28;20176;-86
2023/04/21 12:32:14;;;;;;;27.50;25.48;;;19.00;53.30;;;;;;5033268;28;20226;-85